Flight Track Log - Related Links

Times and Time Zones

All times are in EDT time to prevent confusion due to time zone crossing. See the FLG4099 flight status page for this flight to view local times or setup timezone preferences in your user account.

Time Position Orientation Groundspeed Altitude Reporting Facility
EDT Latitude Longitude Course Direction KTS MPH feet Rate Location/Type
Wed 12:20:49 PM 33.6333 -84.4000 80° East 156 180 1,800  Level Atlanta TRACON
Wed 12:21:49 PM 33.6333 -84.3333 90° East 221 254 3,100 2,000 Climbing Atlanta TRACON
Wed 12:22:49 PM 33.6333 -84.2667 90° East 251 289 5,800 2,702 Climbing Atlanta TRACON
Wed 12:23:00 PM 33.5854 -84.0874 73° East  Level Estimated
Wed 12:24:00 PM 33.5681 -83.9741 118° Southeast  Level Estimated
Wed 12:24:40 PM 33.6314 -84.0961 91° East 287 330 10,800  Level Atlanta Center
Wed 12:25:00 PM 33.5856 -83.8607 79° East  Level FlightAware Approximate
Wed 12:25:40 PM 33.6128 -83.9864 101° East 314 361 11,500  Level Atlanta Center
Wed 12:26:00 PM 33.6030 -83.7473 80° East  Level FlightAware Approximate
Wed 12:26:40 PM 33.5917 -83.8817 104° East 341 392 13,300  Level Atlanta Center
Wed 12:27:40 PM 33.5686 -83.7569 102° East 368 423 15,200 1,800 Climbing Atlanta Center
Wed 12:28:40 PM 33.5514 -83.6275 99° East 387 445 16,900 1,650 Climbing Atlanta Center
Wed 12:29:40 PM 33.5656 -83.4928 83° East 392 451 18,500 1,550 Climbing Atlanta Center
Wed 12:30:40 PM 33.5794 -83.3581 83° East 411 473 20,000 1,250 Climbing Atlanta Center
Wed 12:31:40 PM 33.5975 -83.2158 81° East 426 490 21,000 500 Climbing Atlanta Center
Wed 12:32:40 PM 33.6131 -83.0783 82° East 426 490 21,000  Level Atlanta Center
Wed 12:33:40 PM 33.6242 -82.9261 85° East 426 490 21,000  Level Atlanta Center
Wed 12:34:40 PM 33.6417 -82.7836 82° East 426 490 21,000  Level Atlanta Center
Wed 12:35:40 PM 33.6589 -82.6436 82° East 431 496 21,000  Level Atlanta Center
Wed 12:36:40 PM 33.6697 -82.4986 85° East 426 490 21,000  Level Atlanta Center
Wed 12:37:40 PM 33.6889 -82.3561 81° East 426 490 21,000  Level Atlanta Center
Wed 12:39:52 PM 33.6772 -82.0589 93° East 420 483 21,000  Level Jacksonville Center
Wed 12:40:52 PM 33.6258 -81.9072 112° Southeast 430 495 21,000  Level Jacksonville Center
Wed 12:41:52 PM 33.5853 -81.7706 110° East 435 501 21,000 -600 Level Jacksonville Center
Wed 12:42:52 PM 33.5422 -81.6367 111° Southeast 435 501 19,800 -1,200 Descending Jacksonville Center
Wed 12:43:52 PM 33.5011 -81.5078 111° Southeast 429 494 18,600 -1,100 Descending Jacksonville Center
Wed 12:44:52 PM 33.4600 -81.3764 111° Southeast 423 487 17,600 -1,100 Descending Jacksonville Center
Wed 12:45:52 PM 33.4231 -81.2525 110° East 410 472 16,400 -1,200 Descending Jacksonville Center
Wed 12:46:52 PM 33.3839 -81.1314 111° Southeast 397 457 15,200 -1,150 Descending Jacksonville Center
Wed 12:47:52 PM 33.3444 -81.0128 112° Southeast 390 449 14,100 -1,100 Descending Jacksonville Center
Wed 12:48:52 PM 33.3053 -80.8994 112° Southeast 385 443 13,000 -1,050 Descending Jacksonville Center
Wed 12:49:52 PM 33.2719 -80.7833 109° East 375 432 12,000 -1,000 Descending Jacksonville Center
Wed 12:50:52 PM 33.2261 -80.6703 116° Southeast 375 432 11,000 -700 Descending Jacksonville Center
Wed 12:51:52 PM 33.1972 -80.5592 107° East 369 425 10,600 -550 Descending Jacksonville Center
Wed 12:52:52 PM 33.1456 -80.4811 128° Southeast 312 359 9,900 -1,250 Descending Jacksonville Center
Wed 12:53:52 PM 33.0719 -80.4558 164° South 284 327 8,100 -1,550 Descending Jacksonville Center
Wed 12:54:52 PM 33.0108 -80.4278 159° South 276 318 6,800 -1,300 Descending Jacksonville Center

Login

Don't have an account? Register now (free) for customized features, flight alerts, and more!